CPX211 Details

Departure: Benito Juárez International Airport (MMMX) at 1130 UTC
Arrival: Miami International Airport (KMIA) at 1430 UTC
Route: CCUDA M580 NATLE CYY SSCOT5
Notes:


Current Weather Information
MMMX 231243Z 08007KT 6SM BKN020 BKN230 13/10 A3032 NOSIG RMK 8/502 HZY AC
KMIA 231253Z 05004KT 10SM FEW009 FEW020 SCT250 28/24 A3000 RMK AO2 SLP158 T02780239